ENTK1: Smokey Hill River, Enterprise, KS

Data processed at Tue May 21 2019 22:10


All information presented herein is the property of the government of the United States of America and may be revised or deleted at any time without prior notice.
Dissemination of this information without the expressed written consent of the Public Affairs Office, Tulsa District U.S. Army Corps of Engineers is strictly prohibited.
These data are gathered electronically and, as presented, have not undergone any form of quality control. These data are not guaranteed to be valid or correct.
Go to home page.
Go to station list.
Go to home page.

Downstream station:


Previous Day
Next Day
Current Day
    
SHEF ID:       ENTK1     SMOKY HILL R AT ENTERPRISE, KS
STATION TYPE:  

               PRECIP     STAGE  RIV-FLOW  BAT-LOAD
                   in        ft       cfs      volt
              Ccp-Rev   Ccp-Rev   Ccp-Rev   Ccp-Rev
(US/Central)
05/21 00:00      0.00     26.35     14892     12.60
05/21 01:00      0.00     26.70     15530     12.60
05/21 02:00      0.00     26.97     16069     12.60
05/21 03:00      0.00     27.25     16684     12.60
05/21 04:00      0.00     27.45     17178     12.60
05/21 05:00      0.00     27.65     17681     12.60
05/21 06:00      0.08     27.75     17940     12.60
05/21 07:00      0.25     27.91     18379     12.60
05/21 08:00      0.15     28.01     18656     12.60
05/21 09:00      0.14     28.18     19208     12.60
05/21 10:00      0.03     28.24     19424     12.71
05/21 11:00      0.00     28.36     19861     13.24
05/21 12:00      0.00     28.55     20565     13.00
05/21 13:00      0.01     28.62     20829     13.24
05/21 14:00      0.02     28.72     21209     13.18
05/21 15:00      0.00     28.84     21672     13.18
05/21 16:00      0.00     28.92     21984     13.53
05/21 17:00      0.39     29.06     22536     13.48
05/21 18:00      0.00     29.18     23017     13.18
05/21 19:00      0.00     29.28     23423     13.07
05/21 20:00      0.00     29.43     24040     13.00
05/21 21:00      0.00     29.49     24290     12.89
05/21 22:00      ----      ----      ----      ----
05/21 23:00      ----      ----      ----      ----